createdAt,value
2023-02-24T00:00:39.001Z,98273.53
2023-02-24T00:03:18.399Z,98277.38
2023-02-24T00:05:51.999Z,98257.09
2023-02-24T00:08:22.856Z,98264.50
2023-02-24T00:10:54.411Z,98265.56
2023-02-24T00:13:25.909Z,98255.44
2023-02-24T00:16:07.825Z,98255.16
2023-02-24T00:18:39.964Z,98255.16
2023-02-24T00:21:18.959Z,98226.41
2023-02-24T00:23:53.598Z,98246.72
2023-02-24T00:26:36.471Z,98242.28
2023-02-24T00:29:16.407Z,98248.56
2023-02-24T00:31:50.072Z,98246.94
2023-02-24T00:34:25.938Z,98196.22
2023-02-24T00:37:09.366Z,98248.19
2023-02-24T00:39:51.169Z,98250.75
2023-02-24T00:42:23.954Z,98251.63
2023-02-24T00:45:08.154Z,98249.13
2023-02-24T00:47:40.450Z,98248.56
2023-02-24T00:50:14.573Z,98247.19
2023-02-24T00:52:53.753Z,98237.06
2023-02-24T00:58:13.313Z,98249.38
2023-02-24T01:00:55.222Z,98241.44
2023-02-24T01:03:32.408Z,98248.53
2023-02-24T01:06:12.606Z,98240.38
2023-02-24T01:08:52.925Z,98245.03
2023-02-24T01:11:44.986Z,98240.63
2023-02-24T01:14:23.105Z,98251.31
2023-02-24T01:17:07.113Z,98237.34
2023-02-24T01:19:53.678Z,98238.41
2023-02-24T01:22:27.336Z,98234.56
2023-02-24T01:25:32.237Z,98197.88
2023-02-24T01:28:04.969Z,98234.56
2023-02-24T01:30:38.082Z,98229.91
2023-02-24T01:33:15.319Z,98226.59
2023-02-24T01:35:49.189Z,98224.97
2023-02-24T01:38:23.560Z,98179.44
2023-02-24T01:41:02.143Z,98227.34
2023-02-24T01:43:34.436Z,98229.31
2023-02-24T01:46:14.663Z,98228.22
2023-02-24T01:48:45.413Z,98187.22
2023-02-24T01:51:19.155Z,98224.94
2023-02-24T01:53:49.484Z,98221.38
2023-02-24T01:56:24.991Z,98223.03
2023-02-24T01:58:55.711Z,98216.72
2023-02-24T02:01:42.222Z,98213.94
2023-02-24T02:04:32.888Z,98210.88
2023-02-24T02:07:07.743Z,98213.13
2023-02-24T02:09:44.565Z,98206.22
2023-02-24T02:12:21.772Z,98210.03
2023-02-24T02:14:55.951Z,98190.41
2023-02-24T02:17:58.538Z,98207.91
2023-02-24T02:21:13.687Z,98203.75
2023-02-24T02:23:59.049Z,98151.19
2023-02-24T02:27:00.037Z,98211.16
2023-02-24T02:29:44.874Z,98207.28
2023-02-24T02:32:24.909Z,98202.91
2023-02-24T02:35:14.249Z,98203.13
2023-02-24T02:38:28.495Z,98209.22
2023-02-24T02:41:31.664Z,98203.19
2023-02-24T02:44:21.336Z,98199.63
2023-02-24T02:47:08.642Z,98195.81
2023-02-24T02:49:46.912Z,98190.34
2023-02-24T02:52:27.498Z,98193.63
2023-02-24T02:55:07.528Z,98193.25
2023-02-24T02:57:40.175Z,98183.34
2023-02-24T03:00:31.744Z,98186.66
2023-02-24T03:03:12.628Z,98186.72
2023-02-24T03:06:01.160Z,98185.63
2023-02-24T03:08:40.192Z,98181.00
2023-02-24T03:11:15.251Z,98171.44
2023-02-24T03:13:50.775Z,98173.88
2023-02-24T03:16:25.300Z,98159.91
2023-02-24T03:19:04.701Z,98147.56
2023-02-24T03:21:55.128Z,98181.28
2023-02-24T03:24:42.071Z,98189.72
2023-02-24T03:27:44.607Z,98189.09
2023-02-24T03:30:47.561Z,98169.41
2023-02-24T03:33:35.673Z,98167.91
2023-02-24T03:36:35.767Z,98188.78
2023-02-24T03:39:14.183Z,98185.19
2023-02-24T03:42:27.136Z,98168.72
2023-02-24T03:45:00.817Z,98174.13
2023-02-24T03:47:43.074Z,98185.44
2023-02-24T03:50:30.001Z,98188.41
2023-02-24T03:53:33.453Z,98203.00
2023-02-24T03:56:40.923Z,98201.81
2023-02-24T03:59:27.279Z,98199.63
2023-02-24T04:02:15.126Z,98194.19
2023-02-24T04:05:12.229Z,98191.72
2023-02-24T04:08:04.543Z,98180.69
2023-02-24T04:10:55.774Z,98195.75
2023-02-24T04:13:53.044Z,98191.94
2023-02-24T04:16:40.451Z,98188.69
2023-02-24T04:19:16.663Z,98191.16
2023-02-24T04:22:04.348Z,98153.72
2023-02-24T04:24:35.009Z,98182.09
2023-02-24T04:27:18.700Z,98174.34
2023-02-24T04:29:56.223Z,98153.22
2023-02-24T04:32:30.243Z,98163.06
2023-02-24T04:35:19.726Z,98168.25
2023-02-24T04:38:07.041Z,98157.75
2023-02-24T04:40:44.928Z,98161.38
2023-02-24T04:43:14.266Z,98155.97
2023-02-24T04:45:44.349Z,98165.00
2023-02-24T04:48:21.305Z,98151.50
2023-02-24T04:50:56.224Z,98156.09
2023-02-24T04:53:27.349Z,98154.69
2023-02-24T04:56:00.405Z,98153.66
2023-02-24T04:58:36.196Z,98149.28
2023-02-24T05:01:14.441Z,98163.75
2023-02-24T05:03:45.822Z,98152.50
2023-02-24T05:06:21.081Z,98121.41
2023-02-24T05:08:54.707Z,98145.72
2023-02-24T05:11:25.687Z,98152.78
2023-02-24T05:14:00.085Z,98150.59
2023-02-24T05:16:33.174Z,98144.88
2023-02-24T05:19:16.324Z,98140.56
2023-02-24T05:21:53.886Z,98138.66
2023-02-24T05:24:22.572Z,98138.91
2023-02-24T05:27:00.817Z,98137.28
2023-02-24T05:29:36.906Z,98131.78
2023-02-24T05:32:10.952Z,98121.75
2023-02-24T05:34:45.444Z,98129.94
2023-02-24T05:37:19.272Z,98114.16
2023-02-24T05:42:35.513Z,98131.84
2023-02-24T05:48:01.987Z,65212.09
2023-02-24T05:50:35.455Z,65212.09
2023-02-24T05:53:13.393Z,65212.09
2023-02-24T05:55:45.330Z,65212.09
2023-02-24T05:58:16.514Z,65212.09
2023-02-24T06:00:53.820Z,65212.09
2023-02-24T06:03:38.426Z,65212.09
2023-02-24T06:06:18.398Z,65212.09
2023-02-24T06:08:53.133Z,65212.09
2023-02-24T06:11:26.864Z,65212.09
2023-02-24T06:16:55.775Z,65212.09
2023-02-24T06:19:32.594Z,65212.09
2023-02-24T06:22:12.285Z,65212.09
2023-02-24T06:24:49.554Z,65212.09
2023-02-24T06:27:35.761Z,65212.09
2023-02-24T06:30:11.250Z,65212.09
2023-02-24T06:32:42.597Z,65212.09
2023-02-24T06:35:13.197Z,65212.09
2023-02-24T06:37:49.122Z,65212.09
2023-02-24T06:40:25.847Z,65212.09
2023-02-24T06:42:55.609Z,65212.09
2023-02-24T06:45:38.742Z,65212.09
2023-02-24T06:48:16.106Z,65212.09
2023-02-24T06:50:51.572Z,65212.09
2023-02-24T06:53:29.437Z,65212.09
2023-02-24T06:55:58.802Z,65212.09
2023-02-24T06:58:31.636Z,65212.09
2023-02-24T07:01:06.707Z,65212.09
2023-02-24T07:03:50.317Z,65212.09
2023-02-24T07:06:26.523Z,65212.09
2023-02-24T07:09:02.097Z,65212.09
2023-02-24T07:11:36.386Z,65212.09
2023-02-24T07:14:10.834Z,65212.09
2023-02-24T07:16:47.689Z,65212.09
2023-02-24T07:19:20.718Z,65212.09
2023-02-24T07:22:02.963Z,65212.09
2023-02-24T07:24:49.140Z,65212.09
2023-02-24T07:27:27.773Z,65212.09
2023-02-24T07:30:06.280Z,65212.09
2023-02-24T07:32:41.169Z,65212.09
2023-02-24T07:35:09.914Z,65212.09
2023-02-24T07:37:43.124Z,65212.09
2023-02-24T07:40:17.964Z,65212.09
2023-02-24T07:42:52.749Z,65212.09
2023-02-24T07:45:24.922Z,65212.09
2023-02-24T07:47:55.561Z,65212.09
2023-02-24T07:50:28.409Z,65212.09
2023-02-24T07:53:05.893Z,65212.09
2023-02-24T07:55:50.388Z,65212.09
2023-02-24T07:58:26.653Z,65212.09
2023-02-24T08:01:09.148Z,65212.09
2023-02-24T08:03:44.499Z,65212.09
2023-02-24T08:09:23.324Z,65212.09
2023-02-24T08:12:04.037Z,65212.09
2023-02-24T08:17:28.817Z,65212.09
2023-02-24T08:20:22.937Z,65212.09
2023-02-24T08:23:06.930Z,65212.09
2023-02-24T08:25:38.722Z,65212.09
2023-02-24T08:28:13.634Z,65212.09
2023-02-24T08:30:50.608Z,65212.09
2023-02-24T08:33:33.121Z,65212.09
2023-02-24T08:36:12.496Z,65212.09
2023-02-24T08:38:58.476Z,65212.09
2023-02-24T08:41:45.588Z,65212.09
2023-02-24T08:44:27.631Z,65212.09
2023-02-24T08:47:08.504Z,65212.09
2023-02-24T08:49:44.711Z,65212.09
2023-02-24T08:52:17.012Z,65212.09
2023-02-24T08:54:49.212Z,65212.09
2023-02-24T08:57:28.409Z,65212.09
2023-02-24T09:00:09.466Z,65212.09
2023-02-24T09:02:45.130Z,65212.09
2023-02-24T09:05:32.120Z,65212.09
2023-02-24T09:08:05.228Z,65212.09
2023-02-24T09:10:51.478Z,65212.09
2023-02-24T09:13:24.982Z,65212.09
2023-02-24T09:15:54.961Z,65212.09
2023-02-24T09:18:38.716Z,65212.09
2023-02-24T09:21:43.270Z,65212.09
2023-02-24T09:24:17.949Z,65212.09
2023-02-24T09:26:48.141Z,65212.09
2023-02-24T09:29:37.915Z,65212.09
2023-02-24T09:32:09.633Z,65212.09
2023-02-24T09:34:44.222Z,65212.09
2023-02-24T09:37:36.222Z,65212.09
2023-02-24T09:40:24.984Z,65212.09
2023-02-24T09:42:58.295Z,65212.09
2023-02-24T09:45:37.059Z,65212.09
2023-02-24T09:48:23.452Z,65212.09
2023-02-24T09:51:08.876Z,65212.09
2023-02-24T09:53:51.524Z,65212.09
2023-02-24T09:56:46.537Z,65212.09
2023-02-24T09:59:36.770Z,65212.09
2023-02-24T10:02:42.638Z,65212.09
2023-02-24T10:05:55.973Z,65212.09
2023-02-24T10:08:44.353Z,65212.09
2023-02-24T10:11:22.236Z,65212.09
2023-02-24T10:14:07.169Z,65212.09
2023-02-24T10:17:11.230Z,65212.09
2023-02-24T10:19:59.419Z,65212.09
2023-02-24T10:22:54.772Z,65212.09
2023-02-24T10:25:40.682Z,65212.09
2023-02-24T10:28:37.116Z,65212.09
2023-02-24T10:31:33.418Z,65212.09
2023-02-24T10:34:06.472Z,65212.09
2023-02-24T10:39:31.068Z,65212.09
2023-02-24T10:42:24.476Z,65212.09
2023-02-24T10:45:03.131Z,65212.09
2023-02-24T10:47:35.143Z,65212.09
2023-02-24T10:50:13.955Z,65212.09
2023-02-24T10:53:19.622Z,65212.09
2023-02-24T10:56:15.468Z,65212.09
2023-02-24T10:59:23.755Z,65212.09
2023-02-24T11:02:27.510Z,65212.09
2023-02-24T11:05:27.566Z,65212.09
2023-02-24T11:11:56.420Z,65212.09
2023-02-24T11:15:00.519Z,65212.09
2023-02-24T11:17:28.537Z,65212.09
2023-02-24T11:20:10.871Z,65212.09
2023-02-24T11:22:55.182Z,65212.09
2023-02-24T11:26:03.343Z,65212.09
2023-02-24T11:29:18.194Z,65212.09
2023-02-24T11:32:23.355Z,65212.09
2023-02-24T11:35:16.016Z,65212.09
2023-02-24T11:38:27.771Z,65212.09
2023-02-24T11:41:29.815Z,65212.09
2023-02-24T11:44:37.342Z,65212.09
2023-02-24T11:47:19.988Z,65212.09
2023-02-24T11:49:58.949Z,65212.09
2023-02-24T11:55:35.627Z,65212.09
2023-02-24T11:58:22.869Z,65212.09
2023-02-24T12:01:27.201Z,65212.09
2023-02-24T12:04:35.747Z,65212.09
2023-02-24T12:07:30.351Z,65212.09
2023-02-24T12:10:21.046Z,65212.09
2023-02-24T12:13:14.143Z,65212.09
2023-02-24T12:16:22.279Z,65212.09
2023-02-24T12:19:05.749Z,65212.09
2023-02-24T12:21:59.668Z,65212.09
2023-02-24T12:24:27.979Z,65212.09
2023-02-24T12:27:24.858Z,65212.09
2023-02-24T12:30:51.653Z,65212.09
2023-02-24T12:37:02.091Z,65212.09
2023-02-24T12:39:33.565Z,65212.09
2023-02-24T12:42:28.936Z,65212.09
2023-02-24T12:45:51.788Z,65212.09
2023-02-24T12:48:39.428Z,65212.09
2023-02-24T12:51:48.692Z,65212.09
2023-02-24T12:54:49.910Z,65212.09
2023-02-24T12:57:42.341Z,65212.09
2023-02-24T13:00:50.900Z,65212.09
2023-02-24T13:03:42.526Z,65212.09
2023-02-24T13:06:57.715Z,65212.09
2023-02-24T13:10:09.197Z,65212.09
2023-02-24T13:15:57.930Z,65212.09
2023-02-24T13:18:42.778Z,65212.09
2023-02-24T13:21:33.178Z,65212.09
2023-02-24T13:24:03.465Z,65212.09
2023-02-24T13:26:43.942Z,65212.09
2023-02-24T13:29:17.451Z,65212.09
2023-02-24T13:31:59.673Z,65212.09
2023-02-24T13:34:45.869Z,65212.09
2023-02-24T13:37:16.297Z,65212.09
2023-02-24T13:39:46.701Z,65212.09
2023-02-24T13:42:35.912Z,65212.09
2023-02-24T13:45:10.932Z,65212.09
2023-02-24T13:48:01.558Z,65212.09
2023-02-24T13:51:29.129Z,65212.09
2023-02-24T13:54:42.714Z,65212.09
2023-02-24T13:57:49.305Z,65212.09
2023-02-24T14:03:31.134Z,65212.09
2023-02-24T14:08:58.194Z,65212.09
2023-02-24T14:11:30.149Z,65212.09
2023-02-24T14:14:03.886Z,65212.09
2023-02-24T14:16:48.554Z,65212.09
2023-02-24T14:19:22.690Z,65212.09
2023-02-24T14:22:02.576Z,65212.09
2023-02-24T14:24:43.403Z,65212.09
2023-02-24T14:27:34.928Z,65212.09
2023-02-24T14:30:07.391Z,65212.09
2023-02-24T14:32:38.170Z,65212.09
2023-02-24T14:35:16.879Z,65212.09
2023-02-24T14:37:47.435Z,65212.09
2023-02-24T14:40:24.019Z,65212.09
2023-02-24T14:43:12.633Z,65212.09
2023-02-24T14:45:55.588Z,65212.09
2023-02-24T14:48:38.070Z,65212.09
2023-02-24T14:54:12.751Z,65212.09
2023-02-24T14:56:45.815Z,65212.09
2023-02-24T14:59:41.122Z,65212.09
2023-02-24T15:02:23.053Z,65212.09
2023-02-24T15:04:59.154Z,65212.09
2023-02-24T15:07:32.081Z,65212.09
2023-02-24T15:10:01.448Z,65212.09
2023-02-24T15:12:41.887Z,65212.09
2023-02-24T15:15:38.329Z,65212.09
2023-02-24T15:18:29.407Z,65212.09
2023-02-24T15:21:08.023Z,65212.09
2023-02-24T15:23:47.051Z,65212.09
2023-02-24T15:26:40.264Z,65212.09
2023-02-24T15:29:31.885Z,65212.09
2023-02-24T15:32:04.378Z,65212.09
2023-02-24T15:34:42.366Z,65212.09
2023-02-24T15:37:32.248Z,65212.09
2023-02-24T15:40:23.444Z,65212.09
2023-02-24T15:42:56.051Z,65212.09
2023-02-24T15:45:40.084Z,65212.09
2023-02-24T15:48:28.059Z,65212.09
2023-02-24T15:51:09.611Z,65212.09
2023-02-24T15:53:39.905Z,65212.09
2023-02-24T15:56:15.487Z,65212.09
2023-02-24T15:58:44.757Z,65212.09
2023-02-24T16:01:15.214Z,65212.09
2023-02-24T16:03:46.141Z,65212.09
2023-02-24T16:06:23.487Z,65212.09
2023-02-24T16:08:54.679Z,65212.09
2023-02-24T16:11:31.499Z,65212.09
2023-02-24T16:14:04.208Z,65212.09
2023-02-24T16:16:50.108Z,65212.09
2023-02-24T16:19:24.389Z,65212.09
2023-02-24T16:22:04.492Z,65212.09
2023-02-24T16:24:40.302Z,65212.09
2023-02-24T16:27:12.417Z,65212.09
2023-02-24T16:29:46.231Z,65212.09
2023-02-24T16:32:17.691Z,65212.09
2023-02-24T16:34:47.073Z,65212.09
2023-02-24T16:37:24.880Z,65212.09
2023-02-24T16:40:01.165Z,65212.09
2023-02-24T16:42:37.632Z,65212.09
2023-02-24T16:45:15.424Z,65212.09
2023-02-24T16:48:00.597Z,65212.09
2023-02-24T16:50:45.748Z,65212.09
2023-02-24T16:53:19.628Z,65212.09
2023-02-24T16:55:58.765Z,65212.09
2023-02-24T16:58:29.391Z,65212.09
2023-02-24T17:01:05.628Z,65212.09
2023-02-24T17:03:51.896Z,65212.09
2023-02-24T17:06:26.895Z,65212.09
2023-02-24T17:08:58.108Z,65212.09
2023-02-24T17:11:29.849Z,65212.09
2023-02-24T17:14:02.276Z,65212.09
2023-02-24T17:16:35.835Z,65212.09
2023-02-24T17:19:05.584Z,65212.09
2023-02-24T17:21:37.127Z,65212.09
2023-02-24T17:24:07.618Z,65212.09
2023-02-24T17:26:42.359Z,65212.09
2023-02-24T17:29:12.878Z,65212.09
2023-02-24T17:31:48.437Z,65212.09
2023-02-24T17:34:26.164Z,65212.09
2023-02-24T17:37:10.847Z,65212.09
2023-02-24T17:39:47.538Z,65212.09
2023-02-24T17:42:19.648Z,65212.09
2023-02-24T17:44:49.159Z,65212.09
2023-02-24T17:47:24.809Z,65212.09
2023-02-24T17:49:54.477Z,65212.09
2023-02-24T17:52:25.335Z,65212.09
2023-02-24T17:55:06.354Z,65212.09
2023-02-24T17:57:39.859Z,65212.09
2023-02-24T18:00:20.983Z,65212.09
2023-02-24T18:02:58.707Z,65212.09
2023-02-24T18:05:28.755Z,65212.09
2023-02-24T18:08:07.321Z,65212.09
2023-02-24T18:10:43.605Z,65212.09
2023-02-24T18:13:14.295Z,65212.09
2023-02-24T18:15:45.886Z,65212.09
2023-02-24T18:18:16.421Z,65212.09
2023-02-24T18:20:48.890Z,65212.09
2023-02-24T18:23:22.933Z,65212.09
2023-02-24T18:25:54.810Z,65212.09
2023-02-24T18:28:25.934Z,65212.09
2023-02-24T18:30:57.597Z,65212.09
2023-02-24T18:33:35.424Z,65212.09
2023-02-24T18:36:10.025Z,65212.09
2023-02-24T18:38:40.553Z,65212.09
2023-02-24T18:41:21.232Z,65212.09
2023-02-24T18:43:53.053Z,65212.09
2023-02-24T18:46:25.066Z,65212.09
2023-02-24T18:48:55.999Z,65212.09
2023-02-24T18:51:26.898Z,65212.09
2023-02-24T18:53:57.465Z,65212.09
2023-02-24T18:56:29.109Z,65212.09
2023-02-24T18:58:59.494Z,65212.09
2023-02-24T19:01:43.727Z,65212.09
2023-02-24T19:04:18.412Z,65212.09
2023-02-24T19:07:03.677Z,65212.09
2023-02-24T19:09:40.226Z,65212.09
2023-02-24T19:12:18.010Z,65212.09
2023-02-24T19:14:48.605Z,65212.09
2023-02-24T19:17:28.907Z,65212.09
2023-02-24T19:19:57.183Z,65212.09
2023-02-24T19:22:26.102Z,65212.09
2023-02-24T19:24:56.551Z,65212.09
2023-02-24T19:27:28.904Z,65212.09
2023-02-24T19:30:00.373Z,65212.09
2023-02-24T19:32:32.277Z,65212.09
2023-02-24T19:35:10.434Z,65212.09
2023-02-24T19:37:41.385Z,65212.09
2023-02-24T19:40:16.806Z,65212.09
2023-02-24T19:42:56.094Z,65212.09
2023-02-24T19:45:34.852Z,65212.09
2023-02-24T19:48:08.810Z,65212.09
2023-02-24T19:50:45.562Z,65212.09
2023-02-24T19:53:24.428Z,65212.09
2023-02-24T19:55:55.386Z,65212.09
2023-02-24T19:58:27.263Z,65212.09
2023-02-24T20:00:57.412Z,65212.09
2023-02-24T20:03:30.260Z,65212.09
2023-02-24T20:06:00.447Z,65212.09
2023-02-24T20:08:33.956Z,65212.09
2023-02-24T20:11:05.471Z,65212.09
2023-02-24T20:13:36.129Z,65212.09
2023-02-24T20:16:26.038Z,65212.09
2023-02-24T20:19:03.925Z,65212.09
2023-02-24T20:24:27.452Z,65212.09
2023-02-24T20:26:56.224Z,65212.09
2023-02-24T20:29:32.107Z,65212.09
2023-02-24T20:32:01.624Z,65212.09
2023-02-24T20:34:33.357Z,65212.09
2023-02-24T20:37:04.900Z,65212.09
2023-02-24T20:39:45.764Z,65212.09
2023-02-24T20:42:17.038Z,65212.09
2023-02-24T20:45:03.868Z,65212.09
2023-02-24T20:47:33.608Z,65212.09
2023-02-24T20:50:10.061Z,65212.09
2023-02-24T20:52:40.706Z,65212.09
2023-02-24T20:55:12.421Z,65212.09
2023-02-24T20:57:42.771Z,65212.09
2023-02-24T21:00:11.191Z,65212.09
2023-02-24T21:02:46.421Z,65212.09
2023-02-24T21:05:37.755Z,65212.09
2023-02-24T21:08:11.274Z,65212.09
2023-02-24T21:10:47.106Z,65212.09
2023-02-24T21:13:22.321Z,65212.09
2023-02-24T21:16:01.504Z,65212.09
2023-02-24T21:18:40.922Z,65212.09
2023-02-24T21:21:18.413Z,65212.09
2023-02-24T21:23:54.987Z,65212.09
2023-02-24T21:26:32.849Z,65212.09
2023-02-24T21:29:08.618Z,65212.09
2023-02-24T21:31:40.028Z,65212.09
2023-02-24T21:34:12.055Z,65212.09
2023-02-24T21:36:41.661Z,65212.09
2023-02-24T21:39:17.701Z,65212.09
2023-02-24T21:41:51.791Z,65212.09
2023-02-24T21:44:25.654Z,65212.09
2023-02-24T21:46:59.387Z,65212.09
2023-02-24T21:49:35.283Z,65212.09
2023-02-24T21:52:08.392Z,65212.09
2023-02-24T21:54:54.887Z,65212.09
2023-02-24T21:57:26.269Z,65212.09
2023-02-24T21:59:55.224Z,65212.09
2023-02-24T22:02:25.130Z,65212.09
2023-02-24T22:05:06.686Z,65212.09
2023-02-24T22:07:48.685Z,65212.09
2023-02-24T22:10:20.197Z,65212.09
2023-02-24T22:12:51.073Z,65212.09
2023-02-24T22:15:28.025Z,65212.09
2023-02-24T22:18:01.501Z,65212.09
2023-02-24T22:20:31.364Z,65212.09
2023-02-24T22:23:04.304Z,65212.09
2023-02-24T22:25:42.021Z,65212.09
2023-02-24T22:28:10.786Z,65212.09
2023-02-24T22:30:41.656Z,65212.09
2023-02-24T22:33:18.169Z,65212.09
2023-02-24T22:35:50.141Z,65212.09
2023-02-24T22:38:27.514Z,65212.09
2023-02-24T22:41:04.445Z,65212.09
2023-02-24T22:43:34.752Z,65212.09
2023-02-24T22:46:12.666Z,65212.09
2023-02-24T22:48:50.879Z,65212.09
2023-02-24T22:51:20.658Z,65212.09
2023-02-24T22:54:14.671Z,65212.09
2023-02-24T22:56:46.101Z,65212.09
2023-02-24T23:02:10.125Z,65212.09
2023-02-24T23:04:39.829Z,65212.09
2023-02-24T23:07:11.747Z,65212.09
2023-02-24T23:09:54.811Z,65212.09
2023-02-24T23:12:27.031Z,65212.09
2023-02-24T23:14:58.725Z,65212.09
2023-02-24T23:17:34.308Z,65212.09
2023-02-24T23:20:14.769Z,65212.09
2023-02-24T23:22:48.848Z,65212.09
2023-02-24T23:25:19.629Z,65212.09
2023-02-24T23:27:53.002Z,65212.09
2023-02-24T23:30:27.573Z,65212.09
2023-02-24T23:33:07.424Z,65212.09
2023-02-24T23:35:39.552Z,65212.09
2023-02-24T23:38:13.582Z,65212.09
2023-02-24T23:40:50.168Z,65212.09
2023-02-24T23:43:21.553Z,65212.09
2023-02-24T23:45:55.536Z,65212.09
2023-02-24T23:48:26.439Z,65212.09
2023-02-24T23:51:13.936Z,65212.09
2023-02-24T23:53:45.657Z,65212.09
2023-02-24T23:56:41.583Z,65212.09
2023-02-24T23:59:24.214Z,65212.09
